Time;durP1;ratioP1;P1;durP2;ratioP2;P2;SDS_P1;SDS_P2;PMS_P1;PMS_P2;Temp;Humidity;BMP_temperature;BMP_pressure;BME280_temperature;BME280_humidity;BME280_pressure;Samples;Min_cycle;Max_cycle;Signal;HPM_P1;HPM_P2
2021/10/31 00:01:30;;;;;;;28.95;21.33;;;;;;;10.03;69.64;100100.63;5026337;28;20058;-69
2021/10/31 00:03:57;;;;;;;29.10;21.88;;;;;;;10.03;69.82;100103.25;5038773;28;20059;-69
2021/10/31 00:06:24;;;;;;;33.30;21.58;;;;;;;10.03;69.81;100102.41;5029198;28;20132;-68
2021/10/31 00:08:51;;;;;;;28.15;20.73;;;;;;;9.92;70.63;100095.22;5019676;28;20037;-69
2021/10/31 00:11:19;;;;;;;27.92;20.80;;;;;;;9.91;70.61;100101.44;5030926;28;20068;-69
2021/10/31 00:13:47;;;;;;;28.67;21.17;;;;;;;9.87;71.14;100110.47;5020490;28;20065;-69
2021/10/31 00:16:14;;;;;;;24.67;19.73;;;;;;;9.84;71.16;100106.22;5015719;28;20053;-68
2021/10/31 00:18:42;;;;;;;28.52;21.30;;;;;;;9.89;71.20;100098.03;5034973;28;20491;-68
2021/10/31 00:21:09;;;;;;;31.33;22.25;;;;;;;9.83;71.26;100099.28;5016371;28;20037;-69
2021/10/31 00:23:36;;;;;;;32.50;22.10;;;;;;;9.87;71.27;100113.09;5012703;28;20403;-68
2021/10/31 00:26:03;;;;;;;31.52;21.83;;;;;;;9.94;71.44;100103.84;4999006;28;20525;-68
2021/10/31 00:28:31;;;;;;;32.25;20.90;;;;;;;9.99;71.19;100114.06;5028202;28;20046;-69
2021/10/31 00:30:58;;;;;;;28.45;21.70;;;;;;;10.18;71.12;100113.72;5028651;28;20052;-69
2021/10/31 00:33:26;;;;;;;27.42;21.17;;;;;;;10.26;70.92;100117.56;5022898;28;20057;-67
2021/10/31 00:35:53;;;;;;;28.00;20.45;;;;;;;10.27;70.92;100126.31;5014367;28;20045;-67
2021/10/31 00:38:20;;;;;;;30.52;21.52;;;;;;;10.28;70.86;100126.22;4997974;28;20151;-69
2021/10/31 00:40:48;;;;;;;26.02;20.45;;;;;;;10.25;71.10;100136.09;5031912;28;20075;-68
2021/10/31 00:43:15;;;;;;;27.92;20.45;;;;;;;10.25;70.93;100133.44;5021233;28;20060;-68
2021/10/31 00:45:43;;;;;;;28.70;20.52;;;;;;;10.34;70.97;100131.06;5016586;28;20512;-68
2021/10/31 00:48:10;;;;;;;30.45;21.42;;;;;;;10.28;71.38;100128.84;5038443;28;20072;-69
2021/10/31 00:50:38;;;;;;;27.02;20.80;;;;;;;10.43;70.68;100132.25;5015414;28;20053;-68
2021/10/31 00:53:06;;;;;;;30.13;20.88;;;;;;;10.41;70.89;100128.03;5011335;28;20089;-67
2021/10/31 00:55:33;;;;;;;25.58;21.25;;;;;;;10.30;71.33;100131.34;5015036;28;20053;-69
2021/10/31 00:58:01;;;;;;;29.55;20.33;;;;;;;10.15;72.55;100135.81;5029010;28;20046;-68
2021/10/31 01:00:28;;;;;;;31.42;21.35;;;;;;;10.19;72.14;100134.66;5025009;28;20057;-69
2021/10/31 01:02:55;;;;;;;27.63;21.38;;;;;;;10.26;72.51;100140.41;5018999;28;20052;-67
2021/10/31 01:05:27;;;;;;;28.33;20.58;;;;;;;10.26;72.60;100140.41;5034450;28;20055;-69
2021/10/31 01:08:17;;;;;;;29.52;20.67;;;;;;;10.43;71.86;100137.50;5031389;28;20050;-67
2021/10/31 01:11:06;;;;;;;28.17;20.70;;;;;;;10.37;72.29;100140.56;5014541;28;20404;-68
2021/10/31 01:14:21;;;;;;;31.55;21.17;;;;;;;10.43;71.99;100140.13;5032742;28;20060;-68
2021/10/31 01:17:03;;;;;;;27.48;19.80;;;;;;;10.38;72.66;100143.06;5010205;28;20056;-66
2021/10/31 01:19:42;;;;;;;26.80;19.90;;;;;;;10.42;72.50;100142.88;5009694;28;20562;-68
2021/10/31 01:22:16;;;;;;;28.00;19.88;;;;;;;10.56;72.04;100148.06;5017179;28;20052;-69
2021/10/31 01:25:09;;;;;;;24.90;19.05;;;;;;;10.49;72.76;100139.75;4991235;28;20045;-69
2021/10/31 01:28:03;;;;;;;24.38;18.45;;;;;;;10.66;72.25;100157.03;5023529;28;20395;-69
2021/10/31 01:30:57;;;;;;;28.92;20.85;;;;;;;10.62;72.45;100148.47;5017193;28;20056;-69
2021/10/31 01:33:51;;;;;;;26.00;19.77;;;;;;;10.49;73.07;100158.16;4985943;28;20341;-67
2021/10/31 01:36:32;;;;;;;27.98;18.85;;;;;;;10.56;73.07;100162.06;5028806;28;20052;-67
2021/10/31 01:39:23;;;;;;;27.33;19.45;;;;;;;10.46;73.70;100155.72;5033875;28;20053;-68
2021/10/31 01:42:21;;;;;;;25.05;19.10;;;;;;;10.53;73.45;100158.78;5015147;28;20069;-68
2021/10/31 01:45:04;;;;;;;23.92;18.42;;;;;;;10.56;73.85;100155.97;5032739;28;20423;-68
2021/10/31 01:47:46;;;;;;;31.90;20.73;;;;;;;10.51;74.18;100161.53;5029085;28;20089;-68
2021/10/31 01:50:37;;;;;;;26.00;18.42;;;;;;;10.45;74.72;100155.84;5009972;28;20053;-68
2021/10/31 01:53:08;;;;;;;26.48;18.85;;;;;;;10.28;75.35;100155.16;5018741;28;20141;-69
2021/10/31 01:55:40;;;;;;;28.65;18.83;;;;;;;10.21;75.55;100159.06;5029811;28;20051;-69
2021/10/31 01:58:09;;;;;;;28.90;19.58;;;;;;;9.99;76.57;100164.88;5029248;28;20122;-69
2021/10/31 02:00:36;;;;;;;25.77;19.55;;;;;;;9.81;78.25;100158.16;5003755;28;20057;-69
2021/10/31 02:03:05;;;;;;;26.85;20.58;;;;;;;9.60;79.24;100173.50;5030487;28;20060;-69
2021/10/31 02:05:34;;;;;;;26.20;19.13;;;;;;;9.41;79.78;100172.91;5031508;28;20051;-69
2021/10/31 02:08:05;;;;;;;26.92;20.15;;;;;;;9.29;81.04;100161.41;5025857;28;20051;-69
2021/10/31 02:10:32;;;;;;;24.52;19.80;;;;;;;9.23;81.58;100175.75;5022009;28;20067;-69
2021/10/31 02:13:02;;;;;;;27.30;21.10;;;;;;;9.13;82.61;100175.44;5010575;28;20051;-69
2021/10/31 02:15:29;;;;;;;27.42;19.08;;;;;;;9.09;83.47;100183.59;5011170;28;20045;-69
2021/10/31 02:17:57;;;;;;;27.75;20.90;;;;;;;8.97;83.25;100176.47;5042008;28;20053;-69
2021/10/31 02:20:25;;;;;;;26.95;19.05;;;;;;;8.92;84.03;100176.75;5037054;28;20126;-70
2021/10/31 02:23:01;;;;;;;30.27;21.88;;;;;;;8.87;85.15;100178.75;5056482;28;20079;-70
2021/10/31 02:25:29;;;;;;;25.55;19.67;;;;;;;8.85;85.20;100181.50;5036803;28;20050;-68
2021/10/31 02:27:56;;;;;;;26.92;19.83;;;;;;;9.05;85.23;100180.34;5031457;28;20073;-69
2021/10/31 02:30:23;;;;;;;25.50;19.25;;;;;;;8.94;85.55;100192.41;5018896;28;20049;-68
2021/10/31 02:32:51;;;;;;;30.23;20.45;;;;;;;8.86;86.35;100195.47;5038779;28;20060;-69
2021/10/31 02:35:20;;;;;;;28.52;20.88;;;;;;;8.80;86.51;100204.53;5017116;28;20515;-68
2021/10/31 02:37:47;;;;;;;28.55;21.48;;;;;;;8.70;86.67;100202.56;5025584;28;20060;-70
2021/10/31 02:40:16;;;;;;;24.50;20.27;;;;;;;8.75;88.14;100203.13;5041476;28;20054;-70
2021/10/31 02:42:44;;;;;;;26.55;20.35;;;;;;;8.71;88.65;100193.75;5016384;28;20057;-70
2021/10/31 02:45:11;;;;;;;27.48;19.73;;;;;;;8.78;88.69;100198.56;5029047;28;20049;-68
2021/10/31 02:47:51;;;;;;;29.15;21.20;;;;;;;8.83;88.56;100190.41;5013319;28;20045;-69
2021/10/31 02:50:35;;;;;;;28.52;19.70;;;;;;;8.84;88.34;100195.56;5020290;28;20053;-70
2021/10/31 02:53:22;;;;;;;26.83;20.40;;;;;;;8.81;88.47;100194.88;4995330;28;20500;-70
2021/10/31 02:55:56;;;;;;;24.63;19.67;;;;;;;8.83;88.55;100198.28;5017189;28;20061;-69
2021/10/31 02:58:50;;;;;;;27.42;19.90;;;;;;;8.83;89.46;100198.28;5012462;28;20045;-69
2021/10/31 03:01:18;;;;;;;28.38;20.15;;;;;;;8.91;89.16;100197.81;4995440;28;20597;-70
2021/10/31 03:03:46;;;;;;;29.10;21.38;;;;;;;8.86;89.82;100198.09;5038497;28;20584;-71
2021/10/31 03:06:19;;;;;;;28.50;19.58;;;;;;;8.80;90.09;100203.69;5003494;28;20507;-70
2021/10/31 03:08:47;;;;;;;29.35;21.60;;;;;;;8.73;90.18;100208.44;5006941;28;20073;-70
2021/10/31 03:11:14;;;;;;;29.00;20.65;;;;;;;8.67;91.01;100203.56;4997611;28;20041;-70
2021/10/31 03:13:41;;;;;;;29.10;20.58;;;;;;;8.65;91.66;100212.47;5018863;28;20408;-70
2021/10/31 03:16:09;;;;;;;24.65;19.73;;;;;;;8.73;91.61;100210.22;5017476;28;20475;-70
2021/10/31 03:18:36;;;;;;;26.27;19.50;;;;;;;8.83;91.63;100199.13;5003128;28;20049;-70
2021/10/31 03:21:04;;;;;;;24.55;19.23;;;;;;;8.91;91.31;100205.69;5021122;28;20060;-69
2021/10/31 03:23:31;;;;;;;27.50;18.77;;;;;;;9.00;91.95;100200.75;5016345;28;20061;-69
2021/10/31 03:25:59;;;;;;;26.58;18.63;;;;;;;9.06;91.04;100199.56;4984926;28;20048;-70
2021/10/31 03:28:26;;;;;;;24.73;18.50;;;;;;;9.04;91.65;100212.75;5016577;28;20068;-70
2021/10/31 03:30:53;;;;;;;23.42;17.55;;;;;;;9.05;91.59;100201.34;5017832;28;20054;-69
2021/10/31 03:33:20;;;;;;;22.05;17.15;;;;;;;9.28;91.26;100207.00;5005423;28;20051;-69
2021/10/31 03:35:48;;;;;;;24.98;16.63;;;;;;;9.37;91.04;100203.81;5016319;28;20531;-69
2021/10/31 03:38:15;;;;;;;25.73;17.67;;;;;;;9.33;91.14;100212.81;5033361;28;20053;-69
2021/10/31 03:40:42;;;;;;;23.98;16.02;;;;;;;9.37;91.30;100214.31;5029421;28;20060;-69
2021/10/31 03:43:09;;;;;;;23.52;16.48;;;;;;;9.52;91.48;100216.00;5024113;28;20068;-71
2021/10/31 03:45:38;;;;;;;20.27;15.68;;;;;;;9.68;90.81;100212.44;5030251;28;20054;-69
2021/10/31 03:48:06;;;;;;;22.25;16.88;;;;;;;9.87;89.77;100215.63;5020618;28;20053;-68
2021/10/31 03:50:33;;;;;;;20.23;15.32;;;;;;;10.27;88.03;100215.78;5014166;28;20041;-70
2021/10/31 03:53:00;;;;;;;21.42;15.70;;;;;;;10.34;87.23;100217.88;5037099;28;20053;-70
2021/10/31 03:55:28;;;;;;;25.20;15.75;;;;;;;10.35;87.55;100222.19;5022797;28;20075;-69
2021/10/31 03:57:56;;;;;;;19.35;15.35;;;;;;;10.24;88.32;100226.44;5031640;28;20315;-69
2021/10/31 04:00:23;;;;;;;21.10;15.55;;;;;;;10.11;88.98;100223.75;5011157;28;20046;-69
2021/10/31 04:02:51;;;;;;;19.40;15.10;;;;;;;10.12;88.78;100222.78;5030714;28;20657;-67
2021/10/31 04:05:18;;;;;;;21.52;16.38;;;;;;;9.96;89.66;100232.63;5031098;28;20057;-68
2021/10/31 04:07:47;;;;;;;18.27;14.32;;;;;;;10.09;89.25;100239.63;5021148;28;20427;-69
2021/10/31 04:10:14;;;;;;;22.65;15.52;;;;;;;10.08;90.03;100239.72;5027756;28;20048;-68
2021/10/31 04:12:42;;;;;;;18.27;15.35;;;;;;;10.14;89.78;100245.44;5031893;28;20053;-69
2021/10/31 04:15:09;;;;;;;20.60;14.68;;;;;;;10.07;90.54;100243.28;5031559;28;20053;-70
2021/10/31 04:17:36;;;;;;;22.33;14.70;;;;;;;10.12;90.40;100249.09;5017372;28;20044;-69
2021/10/31 04:20:04;;;;;;;19.58;13.68;;;;;;;10.20;90.19;100246.84;5012434;28;20438;-69
2021/10/31 04:22:31;;;;;;;17.48;13.80;;;;;;;10.23;89.72;100244.00;5016883;28;20058;-69
2021/10/31 04:24:58;;;;;;;19.77;14.48;;;;;;;10.19;90.26;100239.06;5027775;28;20167;-70
2021/10/31 04:27:25;;;;;;;22.80;14.73;;;;;;;9.94;91.34;100235.31;5026437;28;20623;-70
2021/10/31 04:29:53;;;;;;;20.75;13.88;;;;;;;9.78;92.72;100235.44;5031488;28;20135;-69
2021/10/31 04:32:20;;;;;;;18.65;14.30;;;;;;;9.76;93.40;100239.09;5016446;28;20056;-67
2021/10/31 04:34:47;;;;;;;17.35;14.32;;;;;;;9.93;93.17;100243.31;5014395;28;20045;-70
2021/10/31 04:37:14;;;;;;;17.40;13.68;;;;;;;9.84;93.44;100247.34;5030509;28;20049;-70
2021/10/31 04:39:42;;;;;;;18.05;13.73;;;;;;;9.81;94.13;100245.75;5013502;28;20125;-68
2021/10/31 04:42:10;;;;;;;19.55;13.73;;;;;;;9.72;95.01;100245.47;5018874;28;20045;-69
2021/10/31 04:44:38;;;;;;;32.60;14.98;;;;;;;9.61;95.15;100261.91;5003012;28;20514;-70
2021/10/31 04:47:06;;;;;;;19.65;13.88;;;;;;;9.56;96.16;100259.56;5020585;28;20088;-70
2021/10/31 04:49:33;;;;;;;17.75;13.40;;;;;;;9.61;96.24;100260.13;5027111;28;20049;-70
2021/10/31 04:52:01;;;;;;;18.90;13.85;;;;;;;9.61;97.02;100259.28;5029393;28;20047;-69
2021/10/31 04:54:28;;;;;;;21.38;14.63;;;;;;;9.59;96.93;100258.50;5022306;28;20071;-68
2021/10/31 04:56:56;;;;;;;20.08;13.60;;;;;;;9.70;97.02;100258.72;5028894;28;20049;-68
2021/10/31 04:59:23;;;;;;;16.00;14.10;;;;;;;9.94;95.26;100258.13;5021940;28;20050;-69
2021/10/31 05:01:50;;;;;;;19.38;14.57;;;;;;;9.98;95.33;100260.47;5013122;28;20419;-69
2021/10/31 05:04:18;;;;;;;18.30;14.23;;;;;;;10.07;94.81;100256.44;5034450;28;20416;-68
2021/10/31 05:06:46;;;;;;;20.00;14.82;;;;;;;10.19;94.23;100262.72;5030080;28;20057;-69
2021/10/31 05:09:13;;;;;;;17.55;12.23;;;;;;;10.15;94.09;100259.44;5014303;28;20064;-69
2021/10/31 05:11:41;;;;;;;20.98;14.43;;;;;;;10.08;94.74;100258.97;5002244;28;20056;-69
2021/10/31 05:14:08;;;;;;;19.15;13.32;;;;;;;10.19;94.11;100262.72;5033310;28;20045;-68
2021/10/31 05:16:37;;;;;;;19.13;14.85;;;;;;;10.27;93.96;100257.88;5018011;28;20085;-68
2021/10/31 05:19:04;;;;;;;18.48;13.52;;;;;;;10.31;93.78;100260.19;5010215;28;20064;-70
2021/10/31 05:21:32;;;;;;;18.58;14.27;;;;;;;10.42;92.97;100254.25;5019627;28;20049;-67
2021/10/31 05:24:00;;;;;;;19.17;13.18;;;;;;;10.55;92.31;100263.03;5013839;28;20546;-69
2021/10/31 05:26:27;;;;;;;20.90;14.52;;;;;;;10.61;91.63;100267.06;5035183;28;20053;-70
2021/10/31 05:28:55;;;;;;;18.17;12.88;;;;;;;10.68;91.50;100272.78;4989590;28;20057;-69
2021/10/31 05:31:22;;;;;;;17.98;14.07;;;;;;;10.76;90.89;100266.06;5012544;28;20041;-69
2021/10/31 05:33:51;;;;;;;17.23;13.82;;;;;;;10.77;90.54;100274.81;5034057;28;20655;-68
2021/10/31 05:36:19;;;;;;;19.73;15.10;;;;;;;10.84;90.06;100262.91;5008286;28;20053;-68
2021/10/31 05:38:46;;;;;;;16.58;13.27;;;;;;;10.90;89.77;100267.81;5018893;28;20533;-67
2021/10/31 05:41:13;;;;;;;21.13;13.73;;;;;;;11.00;88.38;100262.75;5027078;28;20041;-69
2021/10/31 05:43:40;;;;;;;18.27;13.73;;;;;;;11.03;88.54;100262.53;5033914;28;20056;-69
2021/10/31 05:46:08;;;;;;;18.48;14.20;;;;;;;11.10;87.65;100271.72;5011784;28;20046;-68
2021/10/31 05:48:35;;;;;;;18.25;14.00;;;;;;;11.10;87.47;100272.56;5029005;28;20902;-68
2021/10/31 05:51:03;;;;;;;18.58;14.55;;;;;;;11.04;87.93;100275.63;5016253;28;20049;-68
2021/10/31 05:53:30;;;;;;;21.95;15.38;;;;;;;11.03;87.88;100288.88;5010052;28;20058;-68
2021/10/31 05:55:57;;;;;;;18.33;14.20;;;;;;;10.98;87.89;100296.25;5015208;28;20069;-68
2021/10/31 05:58:25;;;;;;;19.95;15.20;;;;;;;10.98;88.18;100297.09;5027672;28;20622;-68
2021/10/31 06:00:53;;;;;;;19.63;15.27;;;;;;;10.99;87.81;100304.06;5030380;28;20053;-69
2021/10/31 06:03:20;;;;;;;18.45;15.38;;;;;;;10.98;88.18;100296.25;5010999;28;20483;-68
2021/10/31 06:05:48;;;;;;;21.90;15.20;;;;;;;10.95;87.93;100289.41;5015554;28;20407;-67
2021/10/31 06:08:17;;;;;;;18.95;14.10;;;;;;;10.88;88.65;100280.22;5017017;28;20110;-68
2021/10/31 06:10:44;;;;;;;19.25;14.75;;;;;;;10.79;89.04;100281.66;5024416;28;20049;-67
2021/10/31 06:13:12;;;;;;;20.88;14.55;;;;;;;10.68;89.82;100292.06;5008331;28;20055;-67
2021/10/31 06:15:39;;;;;;;19.52;14.88;;;;;;;10.65;89.51;100292.25;5008567;28;20436;-67
2021/10/31 06:18:06;;;;;;;22.08;15.40;;;;;;;10.58;90.33;100294.44;5011587;28;20057;-66
2021/10/31 06:20:33;;;;;;;19.15;14.13;;;;;;;10.54;90.38;100300.84;4993327;28;20045;-67
2021/10/31 06:23:01;;;;;;;18.75;14.45;;;;;;;10.49;91.16;100302.03;5030556;28;20045;-69
2021/10/31 06:25:28;;;;;;;24.10;15.70;;;;;;;10.56;90.63;100296.31;5032095;28;20061;-68
2021/10/31 06:27:55;;;;;;;20.38;15.13;;;;;;;10.54;90.56;100294.72;5042252;28;20065;-69
2021/10/31 06:30:22;;;;;;;18.52;14.98;;;;;;;10.63;90.71;100304.66;5032508;28;20041;-67
2021/10/31 06:32:49;;;;;;;21.92;16.52;;;;;;;10.61;90.34;100315.28;5032413;28;20539;-67
2021/10/31 06:35:17;;;;;;;21.75;15.30;;;;;;;10.71;89.90;100320.78;5027757;28;20058;-66
2021/10/31 06:37:44;;;;;;;19.42;14.23;;;;;;;10.71;90.04;100322.59;5016657;28;20060;-67
2021/10/31 06:40:11;;;;;;;22.45;15.25;;;;;;;10.79;89.40;100326.41;5020054;28;20424;-68
2021/10/31 06:42:38;;;;;;;17.52;14.00;;;;;;;10.83;89.34;100320.00;5006747;28;20067;-67
2021/10/31 06:45:06;;;;;;;19.40;14.40;;;;;;;10.86;88.94;100332.16;5025228;28;20033;-67
2021/10/31 06:47:33;;;;;;;20.75;15.35;;;;;;;10.94;88.35;100318.47;5034833;28;20060;-67
2021/10/31 06:50:01;;;;;;;20.63;15.13;;;;;;;11.00;87.99;100320.72;5016570;28;20072;-67
2021/10/31 06:52:28;;;;;;;20.77;14.80;;;;;;;11.10;87.30;100321.78;5017568;28;20061;-67
2021/10/31 06:54:57;;;;;;;19.38;15.25;;;;;;;11.30;86.52;100331.00;5012319;28;20053;-71
2021/10/31 06:57:24;;;;;;;22.55;14.90;;;;;;;11.52;85.73;100327.75;5034174;28;20085;-68
2021/10/31 06:59:51;;;;;;;21.55;15.30;;;;;;;11.74;84.35;100335.06;5049802;28;20049;-67
2021/10/31 07:02:18;;;;;;;18.30;14.27;;;;;;;11.86;83.21;100336.91;5038095;28;20060;-68
2021/10/31 07:04:45;;;;;;;17.98;14.93;;;;;;;12.05;82.56;100339.09;5034209;28;20060;-68
2021/10/31 07:07:14;;;;;;;18.83;15.02;;;;;;;12.22;81.13;100337.94;5014618;28;20057;-70
2021/10/31 07:09:42;;;;;;;18.92;14.48;;;;;;;12.54;79.48;100340.94;5030229;28;20058;-68
2021/10/31 07:12:09;;;;;;;22.30;14.45;;;;;;;12.71;78.11;100351.13;5032003;28;20558;-67
2021/10/31 07:14:36;;;;;;;20.13;15.00;;;;;;;12.90;77.26;100338.25;5013235;28;20515;-68
2021/10/31 07:17:03;;;;;;;23.83;16.17;;;;;;;13.22;75.79;100342.13;5030342;28;20554;-67
2021/10/31 07:19:31;;;;;;;18.05;14.20;;;;;;;13.96;72.95;100346.22;5027856;28;20069;-67
2021/10/31 07:21:58;;;;;;;22.08;14.90;;;;;;;14.96;68.22;100341.78;5028660;28;20045;-67
2021/10/31 07:24:26;;;;;;;21.10;13.70;;;;;;;16.33;62.19;100345.22;5030889;28;20396;-68
2021/10/31 07:26:53;;;;;;;17.65;13.90;;;;;;;17.43;59.10;100331.84;5008204;28;20058;-67
2021/10/31 07:29:20;;;;;;;17.50;13.60;;;;;;;18.56;55.60;100334.44;5027111;28;20046;-67
2021/10/31 07:31:48;;;;;;;16.50;13.15;;;;;;;19.78;50.37;100336.63;5013475;28;20064;-68
2021/10/31 07:34:16;;;;;;;19.15;14.00;;;;;;;20.65;48.35;100341.75;5001579;28;20072;-67
2021/10/31 07:36:44;;;;;;;17.35;13.43;;;;;;;20.47;47.96;100346.34;5004511;28;20063;-69
2021/10/31 07:39:12;;;;;;;15.30;12.30;;;;;;;20.85;46.17;100349.47;5009745;28;20431;-68
2021/10/31 07:41:39;;;;;;;16.90;13.00;;;;;;;21.32;45.48;100341.75;5012705;28;20042;-68
2021/10/31 07:44:07;;;;;;;17.20;13.32;;;;;;;20.77;46.73;100344.97;5026086;28;20073;-69
2021/10/31 07:46:34;;;;;;;16.38;13.95;;;;;;;20.60;46.94;100343.25;5028683;28;20431;-69
2021/10/31 07:49:02;;;;;;;17.15;13.27;;;;;;;20.26;48.01;100341.38;5025596;22;20049;-69
2021/10/31 07:51:30;;;;;;;21.38;13.23;;;;;;;20.86;47.05;100341.31;4982020;28;20053;-70
2021/10/31 07:53:57;;;;;;;17.90;12.40;;;;;;;21.01;46.23;100335.31;4992973;28;20050;-71
2021/10/31 07:56:27;;;;;;;16.17;13.30;;;;;;;20.53;46.56;100345.72;5001504;28;20537;-71
2021/10/31 07:58:57;;;;;;;16.92;14.23;;;;;;;20.99;46.88;100351.56;4968285;28;20113;-71
2021/10/31 08:01:24;;;;;;;18.52;13.68;;;;;;;21.86;43.99;100343.88;4992470;28;20056;-72
2021/10/31 08:03:53;;;;;;;17.42;12.77;;;;;;;22.09;43.78;100342.16;4971918;28;20489;-72
2021/10/31 08:06:21;;;;;;;19.90;13.20;;;;;;;20.86;45.55;100352.03;4990413;28;20046;-70
2021/10/31 08:08:49;;;;;;;16.92;13.48;;;;;;;22.21;43.61;100337.28;4971721;28;20046;-71
2021/10/31 08:11:16;;;;;;;21.05;13.90;;;;;;;21.96;43.45;100331.13;4970231;28;20493;-73
2021/10/31 08:13:45;;;;;;;15.05;13.30;;;;;;;22.42;43.13;100329.47;4987857;28;20069;-72
2021/10/31 08:16:12;;;;;;;18.33;14.55;;;;;;;22.12;43.54;100331.13;4986558;28;20146;-70
2021/10/31 08:18:40;;;;;;;18.55;13.82;;;;;;;21.68;44.10;100330.69;4966256;28;20152;-69
2021/10/31 08:21:09;;;;;;;15.00;12.27;;;;;;;20.58;46.99;100337.22;4989145;28;20042;-71
2021/10/31 08:23:36;;;;;;;17.23;13.07;;;;;;;19.93;48.56;100333.22;4979532;28;20404;-68
2021/10/31 08:26:04;;;;;;;18.15;13.50;;;;;;;20.76;47.45;100329.06;4967900;28;20042;-68
2021/10/31 08:28:34;;;;;;;18.23;13.40;;;;;;;22.74;42.71;100323.13;4987978;28;20392;-74
2021/10/31 08:31:01;;;;;;;17.90;12.70;;;;;;;23.57;40.72;100313.47;4987633;28;20150;-69
2021/10/31 08:33:34;;;;;;;18.05;13.00;;;;;;;22.67;41.80;100314.09;4970722;28;20040;-70
2021/10/31 08:36:04;;;;;;;18.58;14.07;;;;;;;22.24;43.10;100320.84;4985962;28;20054;-69
2021/10/31 08:38:31;;;;;;;17.98;14.27;;;;;;;21.21;44.94;100332.19;4984993;28;20527;-69
2021/10/31 08:40:59;;;;;;;16.08;13.50;;;;;;;21.91;43.93;100333.47;4968710;28;21071;-67
2021/10/31 08:43:27;;;;;;;15.70;13.35;;;;;;;21.79;44.28;100343.72;4959784;28;20092;-69
2021/10/31 08:45:55;;;;;;;17.80;14.35;;;;;;;22.21;42.87;100345.34;4970542;28;20054;-68
2021/10/31 08:48:23;;;;;;;16.15;13.25;;;;;;;21.49;44.21;100343.41;4987784;28;20050;-68
2021/10/31 08:50:50;;;;;;;21.33;13.70;;;;;;;22.85;42.20;100353.25;4993115;28;20050;-69
2021/10/31 08:53:19;;;;;;;17.85;14.40;;;;;;;22.57;41.80;100352.91;4988452;28;20533;-68
2021/10/31 08:55:46;;;;;;;16.75;13.55;;;;;;;23.11;41.18;100355.66;4974074;28;20056;-68
2021/10/31 08:58:13;;;;;;;14.93;13.35;;;;;;;21.95;43.39;100357.09;4988963;28;20042;-68
2021/10/31 09:00:41;;;;;;;16.92;12.63;;;;;;;21.98;43.69;100363.97;4987162;28;20047;-67
2021/10/31 09:03:09;;;;;;;17.23;13.85;;;;;;;21.75;44.28;100347.75;4989171;28;20117;-68
2021/10/31 09:05:37;;;;;;;19.42;14.95;;;;;;;20.94;45.99;100356.56;4976350;28;20059;-68
2021/10/31 09:08:06;;;;;;;18.40;13.60;;;;;;;20.71;46.34;100345.59;4977428;28;20536;-68
2021/10/31 09:10:33;;;;;;;19.02;13.77;;;;;;;19.43;49.93;100331.16;4969165;28;20056;-66
2021/10/31 09:13:00;;;;;;;21.30;15.05;;;;;;;18.40;52.60;100335.09;4979746;28;20517;-67
2021/10/31 09:15:28;;;;;;;19.02;14.35;;;;;;;17.97;54.29;100333.03;4983224;28;20066;-66
2021/10/31 09:17:57;;;;;;;18.60;15.23;;;;;;;17.14;57.09;100327.38;4987796;28;20085;-67
2021/10/31 09:20:27;;;;;;;18.38;14.45;;;;;;;16.38;60.70;100334.19;4984174;28;20058;-66
2021/10/31 09:22:57;;;;;;;21.13;15.98;;;;;;;16.23;61.46;100316.97;4976735;28;20646;-65
2021/10/31 09:25:24;;;;;;;26.52;16.33;;;;;;;16.01;62.93;100324.13;4985970;28;20060;-67
2021/10/31 09:27:55;;;;;;;18.50;15.52;;;;;;;15.83;63.90;100315.09;4995940;28;20058;-65
2021/10/31 09:30:26;;;;;;;26.33;16.63;;;;;;;15.59;65.13;100312.69;4992281;28;20046;-66
2021/10/31 09:32:54;;;;;;;19.60;17.45;;;;;;;15.49;65.87;100312.63;4983853;28;20042;-70
2021/10/31 09:35:27;;;;;;;19.65;15.77;;;;;;;15.38;66.77;100318.00;4987142;28;20078;-66
2021/10/31 09:37:58;;;;;;;22.02;15.55;;;;;;;15.45;67.02;100301.44;4990831;28;20420;-65
2021/10/31 09:40:25;;;;;;;19.60;15.15;;;;;;;15.36;67.83;100299.56;4960137;28;20141;-65
2021/10/31 09:42:54;;;;;;;20.17;15.23;;;;;;;15.38;67.99;100302.91;4989373;28;20053;-64
2021/10/31 09:45:24;;;;;;;20.08;15.85;;;;;;;15.19;68.73;100292.19;4997173;28;20046;-64
2021/10/31 09:48:08;;;;;;;18.13;14.68;;;;;;;15.33;68.84;100296.31;4983349;28;20046;-65
2021/10/31 09:50:39;;;;;;;19.15;15.25;;;;;;;15.41;68.66;100293.88;4988369;28;20077;-63
2021/10/31 09:53:07;;;;;;;19.77;15.73;;;;;;;15.49;68.68;100287.88;4985467;28;20046;-65
2021/10/31 09:55:34;;;;;;;20.08;15.57;;;;;;;15.49;68.19;100290.53;4993322;28;20684;-65
2021/10/31 09:58:04;;;;;;;19.60;15.32;;;;;;;15.45;68.49;100290.81;4989814;28;20046;-65
2021/10/31 10:00:39;;;;;;;19.10;14.90;;;;;;;15.37;69.19;100287.13;4980907;28;20058;-65
2021/10/31 10:06:18;;;;;;;21.00;15.48;;;;;;;15.47;68.95;100288.03;4991350;28;20050;-64
2021/10/31 10:09:03;;;;;;;22.80;15.10;;;;;;;15.59;68.38;100280.84;4996317;28;20058;-64
2021/10/31 10:11:33;;;;;;;19.58;14.43;;;;;;;15.60;68.36;100278.06;4989458;28;20055;-66
2021/10/31 10:14:13;;;;;;;24.48;15.18;;;;;;;15.57;68.33;100278.31;4980029;28;20121;-65
2021/10/31 10:16:41;;;;;;;21.30;15.75;;;;;;;15.54;68.55;100288.38;4990001;28;20046;-66
2021/10/31 10:19:17;;;;;;;21.75;15.25;;;;;;;15.61;68.62;100279.75;4989609;28;20465;-65
2021/10/31 10:21:51;;;;;;;19.67;14.80;;;;;;;15.65;68.64;100285.66;4993581;28;20366;-66
2021/10/31 10:24:19;;;;;;;18.67;15.00;;;;;;;15.70;68.78;100284.28;4993064;28;20975;-65
2021/10/31 10:26:46;;;;;;;20.10;14.30;;;;;;;15.86;68.00;100278.50;4986835;28;20050;-65
2021/10/31 10:29:18;;;;;;;20.20;14.93;;;;;;;15.89;67.52;100280.03;4971649;28;20588;-65
2021/10/31 10:31:53;;;;;;;18.58;13.95;;;;;;;15.91;67.99;100280.78;4975857;28;20061;-65
2021/10/31 10:34:30;;;;;;;20.25;14.90;;;;;;;15.98;68.35;100276.59;4988938;28;20137;-65
2021/10/31 10:37:05;;;;;;;17.95;14.88;;;;;;;16.08;67.49;100277.50;4992629;28;20523;-67
2021/10/31 10:39:33;;;;;;;18.60;14.75;;;;;;;16.22;67.01;100268.31;4987376;28;20332;-67
2021/10/31 10:42:00;;;;;;;18.30;14.05;;;;;;;16.24;67.15;100265.50;4987092;28;20142;-66
2021/10/31 10:44:37;;;;;;;17.98;13.77;;;;;;;16.24;67.40;100263.69;4988370;28;20058;-67
2021/10/31 10:47:18;;;;;;;18.67;13.75;;;;;;;16.23;67.31;100261.19;4980102;28;20066;-66
2021/10/31 10:49:46;;;;;;;19.15;14.38;;;;;;;16.29;67.38;100261.47;4988431;28;20069;-66
2021/10/31 10:52:23;;;;;;;17.65;14.27;;;;;;;16.32;67.52;100239.94;4991990;28;20070;-66
2021/10/31 10:54:55;;;;;;;19.15;13.77;;;;;;;16.34;67.61;100230.00;4990051;28;20393;-68
2021/10/31 10:57:23;;;;;;;18.40;13.15;;;;;;;16.43;67.97;100223.03;4991893;28;20053;-66
2021/10/31 10:59:52;;;;;;;17.17;12.63;;;;;;;16.43;68.09;100231.00;4975329;28;20074;-64
2021/10/31 11:02:23;;;;;;;16.92;11.70;;;;;;;16.46;67.83;100226.25;4994709;28;20043;-66
2021/10/31 11:04:53;;;;;;;19.38;12.25;;;;;;;16.43;68.29;100229.19;4991154;28;20412;-65
2021/10/31 11:07:39;;;;;;;14.48;11.68;;;;;;;16.57;68.32;100229.75;4982745;28;20045;-64
2021/10/31 11:10:12;;;;;;;14.07;11.43;;;;;;;16.54;68.25;100235.38;4989515;28;20050;-69
2021/10/31 11:12:41;;;;;;;25.65;14.65;;;;;;;16.48;69.12;100230.59;4994408;28;20114;-67
2021/10/31 11:15:11;;;;;;;12.77;11.10;;;;;;;16.54;68.90;100230.06;4966436;28;20500;-66
2021/10/31 11:17:43;;;;;;;18.70;11.20;;;;;;;16.36;69.71;100220.09;4988465;28;20096;-66
2021/10/31 11:20:13;;;;;;;13.98;11.45;;;;;;;16.49;69.31;100214.53;4984389;28;20082;-66
2021/10/31 11:22:43;;;;;;;13.77;11.07;;;;;;;16.62;69.18;100212.44;4993929;28;20046;-65
2021/10/31 11:25:12;;;;;;;16.40;11.77;;;;;;;16.72;68.52;100201.84;4974868;28;20129;-64
2021/10/31 11:27:40;;;;;;;14.18;11.18;;;;;;;16.74;68.21;100202.53;4987975;28;20046;-66